createdAt,value
2018-12-09T00:01:18.605Z,97091.81
2018-12-09T00:03:29.438Z,97082.77
2018-12-09T00:05:40.310Z,97070.08
2018-12-09T00:07:51.161Z,97075.34
2018-12-09T00:10:02.138Z,97073.96
2018-12-09T00:12:12.994Z,97066.80
2018-12-09T00:14:23.841Z,97064.20
2018-12-09T00:16:34.701Z,97072.33
2018-12-09T00:18:45.563Z,97078.94
2018-12-09T00:20:56.396Z,97056.13
2018-12-09T00:23:07.298Z,97071.80
2018-12-09T00:25:18.257Z,97053.58
2018-12-09T00:27:29.109Z,97063.50
2018-12-09T00:29:39.942Z,97054.91
2018-12-09T00:31:50.984Z,97052.35
2018-12-09T00:34:02.861Z,97061.92
2018-12-09T00:36:13.781Z,97068.78
2018-12-09T00:38:24.656Z,97083.98
2018-12-09T00:40:35.522Z,97075.98
2018-12-09T00:42:46.364Z,97071.02
2018-12-09T00:44:57.219Z,97063.98
2018-12-09T00:47:08.076Z,97068.47
2018-12-09T00:49:18.961Z,97061.73
2018-12-09T00:51:29.833Z,97051.02
2018-12-09T00:53:40.725Z,97043.70
2018-12-09T00:55:51.605Z,97009.42
2018-12-09T00:58:02.594Z,97025.67
2018-12-09T01:00:13.694Z,97020.48
2018-12-09T01:02:24.560Z,97024.85
2018-12-09T01:04:35.433Z,97019.54
2018-12-09T01:06:46.282Z,97016.59
2018-12-09T01:08:57.164Z,97026.88
2018-12-09T01:11:08.054Z,97015.44
2018-12-09T01:13:18.902Z,97018.50
2018-12-09T01:15:29.769Z,97024.72
2018-12-09T01:17:40.648Z,97024.02
2018-12-09T01:19:51.645Z,97014.73
2018-12-09T01:22:02.505Z,97002.35
2018-12-09T01:24:13.374Z,97012.25
2018-12-09T01:26:24.362Z,97016.28
2018-12-09T01:28:35.204Z,97003.43
2018-12-09T01:30:46.159Z,97010.15
2018-12-09T01:32:57.199Z,97009.09
2018-12-09T01:35:08.181Z,97009.57
2018-12-09T01:37:19.439Z,97008.62
2018-12-09T01:39:30.684Z,96988.82
2018-12-09T01:41:41.566Z,96993.88
2018-12-09T01:43:52.403Z,96994.12
2018-12-09T01:46:03.304Z,96987.41
2018-12-09T01:48:14.269Z,96990.45
2018-12-09T01:50:25.249Z,96999.30
2018-12-09T01:52:36.244Z,96999.19
2018-12-09T01:54:47.100Z,96989.98
2018-12-09T01:56:58.035Z,96998.11
2018-12-09T01:59:08.972Z,96999.30
2018-12-09T02:01:19.825Z,96988.09
2018-12-09T02:03:30.806Z,96984.91
2018-12-09T02:05:41.666Z,96970.29
2018-12-09T02:07:52.615Z,96971.93
2018-12-09T02:10:03.580Z,96986.44
2018-12-09T02:12:14.560Z,97006.63
2018-12-09T02:14:25.505Z,96996.11
2018-12-09T02:16:36.385Z,96983.95
2018-12-09T02:18:51.364Z,96993.27
2018-12-09T02:21:02.452Z,96987.50
2018-12-09T02:23:13.402Z,96969.81
2018-12-09T02:25:24.353Z,96974.55
2018-12-09T02:27:35.301Z,96977.48
2018-12-09T02:29:46.149Z,96968.53
2018-12-09T02:31:56.997Z,96973.38
2018-12-09T02:34:08.036Z,96959.77
2018-12-09T02:36:19.300Z,96954.02
2018-12-09T02:38:30.653Z,96962.73
2018-12-09T02:40:41.593Z,96955.20
2018-12-09T02:42:52.567Z,96948.84
2018-12-09T02:45:04.010Z,96937.86
2018-12-09T02:47:14.937Z,96932.67
2018-12-09T02:49:25.873Z,96927.27
2018-12-09T02:51:36.818Z,96920.88
2018-12-09T02:53:47.887Z,96924.18
2018-12-09T02:55:58.916Z,96916.16
2018-12-09T02:58:09.795Z,96910.27
2018-12-09T03:00:20.978Z,96925.06
2018-12-09T03:02:31.799Z,96931.53
2018-12-09T03:04:42.783Z,96931.31
2018-12-09T03:06:53.605Z,96957.08
2018-12-09T03:09:05.953Z,96980.86
2018-12-09T03:11:16.774Z,96989.67
2018-12-09T03:13:27.733Z,97007.41
2018-12-09T03:15:38.683Z,96980.05
2018-12-09T03:17:49.612Z,96983.20
2018-12-09T03:20:00.574Z,96998.01
2018-12-09T03:22:11.420Z,96999.77
2018-12-09T03:24:22.276Z,96988.08
2018-12-09T03:26:33.104Z,96978.89
2018-12-09T03:28:44.059Z,96971.69
2018-12-09T03:30:55.429Z,96972.54
2018-12-09T03:33:06.785Z,96986.39
2018-12-09T03:35:17.871Z,96982.97
2018-12-09T03:37:28.852Z,96980.26
2018-12-09T03:39:39.817Z,96983.18
2018-12-09T03:41:50.676Z,96999.27
2018-12-09T03:44:01.632Z,96988.70
2018-12-09T03:46:12.488Z,96982.28
2018-12-09T03:48:23.405Z,96984.75
2018-12-09T03:50:34.337Z,96994.62
2018-12-09T03:52:45.290Z,96993.94
2018-12-09T03:54:56.268Z,96995.23
2018-12-09T03:57:07.116Z,96979.37
2018-12-09T03:59:18.059Z,96992.34
2018-12-09T04:01:29.005Z,96985.66
2018-12-09T04:03:39.940Z,96988.25
2018-12-09T04:05:50.801Z,96985.06
2018-12-09T04:08:01.835Z,97000.25
2018-12-09T04:10:12.784Z,97003.91
2018-12-09T04:12:23.735Z,96997.23
2018-12-09T04:14:34.706Z,97016.98
2018-12-09T04:16:46.300Z,97008.88
2018-12-09T04:18:57.522Z,97007.84
2018-12-09T04:21:08.488Z,97018.72
2018-12-09T04:23:20.125Z,97020.14
2018-12-09T04:25:31.071Z,97006.25
2018-12-09T04:27:42.050Z,96984.71
2018-12-09T04:29:52.889Z,96960.94
2018-12-09T04:32:03.733Z,96965.89
2018-12-09T04:34:14.561Z,96981.43
2018-12-09T04:36:25.554Z,96994.38
2018-12-09T04:38:36.380Z,96998.52
2018-12-09T04:40:47.225Z,97012.16
2018-12-09T04:42:58.290Z,97020.40
2018-12-09T04:45:09.224Z,97009.00
2018-12-09T04:47:20.077Z,97025.45
2018-12-09T04:49:30.934Z,97040.30
2018-12-09T04:51:50.798Z,97029.59
2018-12-09T04:54:01.778Z,97030.89
2018-12-09T04:56:12.701Z,97027.73
2018-12-09T04:58:23.553Z,97035.81
2018-12-09T05:00:53.260Z,97033.22
2018-12-09T05:03:04.105Z,97019.11
2018-12-09T05:05:15.029Z,97022.17
2018-12-09T05:07:25.986Z,97028.04
2018-12-09T05:09:36.841Z,97026.39
2018-12-09T05:11:47.802Z,97030.63
2018-12-09T05:13:58.745Z,97047.94
2018-12-09T05:16:09.683Z,97044.40
2018-12-09T05:18:20.637Z,97058.64
2018-12-09T05:20:31.956Z,97060.27
2018-12-09T05:22:43.434Z,97052.81
2018-12-09T05:24:54.286Z,97046.68
2018-12-09T05:27:05.137Z,97042.88
2018-12-09T05:29:15.995Z,97041.92
2018-12-09T05:31:26.876Z,97046.34
2018-12-09T05:33:37.729Z,97050.66
2018-12-09T05:35:48.665Z,97061.69
2018-12-09T05:37:59.630Z,97053.03
2018-12-09T05:40:12.015Z,97057.00
2018-12-09T05:42:23.069Z,97044.92
2018-12-09T05:44:34.002Z,97051.05
2018-12-09T05:46:44.937Z,97053.59
2018-12-09T05:48:55.765Z,97056.09
2018-12-09T05:51:06.714Z,97072.58
2018-12-09T05:53:17.592Z,97072.72
2018-12-09T05:55:28.532Z,97060.03
2018-12-09T05:57:39.462Z,97071.34
2018-12-09T05:59:50.441Z,97072.78
2018-12-09T06:02:13.692Z,97058.23
2018-12-09T06:04:24.630Z,97068.80
2018-12-09T06:06:35.594Z,97079.77
2018-12-09T06:08:46.512Z,97077.74
2018-12-09T06:10:57.574Z,97093.48
2018-12-09T06:13:08.825Z,97085.52
2018-12-09T06:15:19.788Z,97095.61
2018-12-09T06:17:30.750Z,97088.70
2018-12-09T06:19:41.669Z,97081.37
2018-12-09T06:21:52.637Z,97098.93
2018-12-09T06:24:03.570Z,97100.91
2018-12-09T06:26:14.537Z,97121.88
2018-12-09T06:28:25.479Z,97101.47
2018-12-09T06:30:36.317Z,97098.73
2018-12-09T06:32:47.181Z,97107.05
2018-12-09T06:34:58.112Z,97110.78
2018-12-09T06:37:09.072Z,97112.91
2018-12-09T06:39:19.993Z,97106.34
2018-12-09T06:41:30.972Z,97109.75
2018-12-09T06:43:41.825Z,97117.99
2018-12-09T06:45:52.745Z,97109.61
2018-12-09T06:48:03.709Z,97109.75
2018-12-09T06:50:14.768Z,97127.48
2018-12-09T06:52:25.824Z,97120.11
2018-12-09T06:54:37.039Z,97117.75
2018-12-09T06:56:47.981Z,97129.92
2018-12-09T06:58:58.849Z,97144.42
2018-12-09T07:01:09.773Z,97154.77
2018-12-09T07:03:20.616Z,97158.66
2018-12-09T07:05:31.475Z,97166.77
2018-12-09T07:07:42.516Z,97187.48
2018-12-09T07:09:53.352Z,97193.61
2018-12-09T07:12:04.237Z,97177.48
2018-12-09T07:14:15.061Z,97201.25
2018-12-09T07:16:25.920Z,97201.58
2018-12-09T07:18:36.781Z,97205.08
2018-12-09T07:20:47.602Z,97210.25
2018-12-09T07:22:58.429Z,97202.48
2018-12-09T07:25:09.268Z,97209.08
2018-12-09T07:27:20.588Z,97209.02
2018-12-09T07:29:31.915Z,97218.81
2018-12-09T07:31:42.768Z,97225.28
2018-12-09T07:33:53.640Z,97215.75
2018-12-09T07:36:04.589Z,97221.08
2018-12-09T07:38:15.544Z,97230.61
2018-12-09T07:40:26.462Z,97247.16
2018-12-09T07:42:37.425Z,97252.57
2018-12-09T07:44:48.501Z,97265.05
2018-12-09T07:46:59.460Z,97265.05
2018-12-09T07:49:10.439Z,97277.72
2018-12-09T07:51:21.377Z,97274.39
2018-12-09T07:53:32.244Z,97286.16
2018-12-09T07:55:43.112Z,97282.56
2018-12-09T07:57:53.941Z,97289.33
2018-12-09T08:00:07.177Z,97289.81
2018-12-09T08:02:18.037Z,97302.26
2018-12-09T08:04:28.901Z,97303.72
2018-12-09T08:06:39.772Z,97302.63
2018-12-09T08:08:50.594Z,97311.27
2018-12-09T08:11:01.589Z,97315.63
2018-12-09T08:13:12.452Z,97308.80
2018-12-09T08:15:23.340Z,97329.70
2018-12-09T08:17:34.224Z,97322.49
2018-12-09T08:19:45.121Z,97334.45
2018-12-09T08:21:55.982Z,97341.20
2018-12-09T08:24:06.828Z,97333.12
2018-12-09T08:26:17.687Z,97344.84
2018-12-09T08:28:28.544Z,97347.44
2018-12-09T08:30:39.376Z,97334.97
2018-12-09T08:32:50.255Z,97342.38
2018-12-09T08:35:01.152Z,97337.39
2018-12-09T08:37:12.011Z,97341.39
2018-12-09T08:39:22.887Z,97339.91
2018-12-09T08:41:33.911Z,97354.49
2018-12-09T08:43:44.780Z,97344.56
2018-12-09T08:45:57.241Z,97339.08
2018-12-09T08:48:08.282Z,97352.02
2018-12-09T08:50:19.153Z,97348.96
2018-12-09T08:52:30.075Z,97327.69
2018-12-09T08:54:41.068Z,97344.52
2018-12-09T08:56:51.963Z,97334.63
2018-12-09T08:59:02.804Z,97337.22
2018-12-09T09:01:13.698Z,97348.29
2018-12-09T09:03:24.536Z,97338.76
2018-12-09T09:05:35.370Z,97334.79
2018-12-09T09:07:46.255Z,97316.91
2018-12-09T09:09:57.127Z,97317.52
2018-12-09T09:12:08.036Z,97317.84
2018-12-09T09:14:18.952Z,97315.73
2018-12-09T09:16:29.779Z,97318.05
2018-12-09T09:18:40.653Z,97313.45
2018-12-09T09:20:51.472Z,97330.75
2018-12-09T09:23:02.333Z,97325.34
2018-12-09T09:25:13.172Z,97338.33
2018-12-09T09:27:24.017Z,97336.45
2018-12-09T09:29:34.879Z,97331.23
2018-12-09T09:31:45.835Z,97333.47
2018-12-09T09:33:56.700Z,97317.48
2018-12-09T09:36:07.528Z,97318.89
2018-12-09T09:38:18.413Z,97333.95
2018-12-09T09:40:29.330Z,97329.25
2018-12-09T09:42:40.188Z,97328.78
2018-12-09T09:44:51.053Z,97322.30
2018-12-09T09:47:01.939Z,97335.63
2018-12-09T09:49:13.038Z,97339.40
2018-12-09T09:51:23.916Z,97339.56
2018-12-09T09:53:34.767Z,97326.11
2018-12-09T09:55:45.661Z,97337.79
2018-12-09T09:57:56.553Z,97332.14
2018-12-09T10:00:07.460Z,97328.89
2018-12-09T10:02:18.326Z,97330.54
2018-12-09T10:04:29.242Z,97325.95
2018-12-09T10:06:40.087Z,97325.13
2018-12-09T10:08:50.920Z,97319.88
2018-12-09T10:11:01.875Z,97319.80
2018-12-09T10:13:12.873Z,97321.05
2018-12-09T10:15:23.706Z,97316.61
2018-12-09T10:17:34.604Z,97312.22
2018-12-09T10:19:45.472Z,97322.73
2018-12-09T10:21:56.326Z,97321.43
2018-12-09T10:24:07.191Z,97319.67
2018-12-09T10:26:18.063Z,97335.94
2018-12-09T10:28:28.905Z,97326.05
2018-12-09T10:30:39.750Z,97325.78
2018-12-09T10:32:50.613Z,97333.04
2018-12-09T10:35:01.577Z,97329.32
2018-12-09T10:37:12.467Z,97324.34
2018-12-09T10:39:23.329Z,97325.44
2018-12-09T10:41:34.239Z,97335.08
2018-12-09T10:43:45.137Z,97338.80
2018-12-09T10:45:56.003Z,97346.31
2018-12-09T10:48:06.905Z,97348.89
2018-12-09T10:50:17.731Z,97338.86
2018-12-09T10:52:28.600Z,97338.49
2018-12-09T10:54:39.475Z,97338.66
2018-12-09T10:56:50.368Z,97333.95
2018-12-09T10:59:01.336Z,97342.02
2018-12-09T11:01:18.368Z,97345.95
2018-12-09T11:03:29.338Z,97342.27
2018-12-09T11:05:40.188Z,97350.38
2018-12-09T11:07:51.033Z,97352.03
2018-12-09T11:10:02.043Z,97349.17
2018-12-09T11:12:12.925Z,97352.47
2018-12-09T11:14:23.750Z,97356.52
2018-12-09T11:16:34.617Z,97357.29
2018-12-09T11:18:45.521Z,97350.19
2018-12-09T11:20:56.521Z,97354.73
2018-12-09T11:23:07.413Z,97345.76
2018-12-09T11:25:18.389Z,97338.66
2018-12-09T11:27:29.256Z,97337.20
2018-12-09T11:29:40.122Z,97336.84
2018-12-09T11:31:50.987Z,97328.80
2018-12-09T11:34:01.855Z,97329.27
2018-12-09T11:36:12.733Z,97324.29
2018-12-09T11:38:23.672Z,97317.75
2018-12-09T11:40:34.611Z,97313.48
2018-12-09T11:42:45.458Z,97313.95
2018-12-09T11:44:56.338Z,97318.19
2018-12-09T11:47:07.222Z,97309.53
2018-12-09T11:49:18.118Z,97314.42
2018-12-09T11:51:29.002Z,97312.19
2018-12-09T11:53:39.912Z,97313.02
2018-12-09T11:55:50.753Z,97309.33
2018-12-09T11:58:01.658Z,97309.41
2018-12-09T12:00:12.798Z,97321.98
2018-12-09T12:02:23.672Z,97321.16
2018-12-09T12:04:34.554Z,97320.97
2018-12-09T12:06:45.420Z,97318.55
2018-12-09T12:08:56.281Z,97310.87
2018-12-09T12:11:07.159Z,97318.63
2018-12-09T12:13:18.088Z,97318.63
2018-12-09T12:15:28.953Z,97308.84
2018-12-09T12:17:39.863Z,97316.52
2018-12-09T12:19:50.720Z,97306.91
2018-12-09T12:22:01.571Z,97304.48
2018-12-09T12:24:12.451Z,97307.91
2018-12-09T12:26:23.484Z,97303.28
2018-12-09T12:28:34.533Z,97302.65
2018-12-09T12:30:46.352Z,97307.05
2018-12-09T12:32:57.233Z,97300.94
2018-12-09T12:35:08.157Z,97296.15
2018-12-09T12:37:19.055Z,97293.91
2018-12-09T12:39:29.928Z,97289.84
2018-12-09T12:41:40.866Z,97288.70
2018-12-09T12:43:51.841Z,97295.26
2018-12-09T12:46:02.774Z,97286.67
2018-12-09T12:48:13.675Z,97279.30
2018-12-09T12:50:24.574Z,97276.48
2018-12-09T12:52:35.448Z,97281.97
2018-12-09T12:54:46.332Z,97279.89
2018-12-09T12:56:57.215Z,97281.18
2018-12-09T12:59:08.073Z,97283.22
2018-12-09T13:01:18.983Z,97276.52
2018-12-09T13:03:29.861Z,97283.57
2018-12-09T13:05:40.765Z,97286.43
2018-12-09T13:07:51.625Z,97284.39
2018-12-09T13:10:04.051Z,97292.16
2018-12-09T13:12:14.937Z,97296.78
2018-12-09T13:14:25.973Z,97294.27
2018-12-09T13:16:36.844Z,97303.33
2018-12-09T13:18:47.692Z,97296.03
2018-12-09T13:20:58.583Z,97306.58
2018-12-09T13:23:09.478Z,97305.23
2018-12-09T13:25:20.340Z,97313.57
2018-12-09T13:27:31.275Z,97314.86
2018-12-09T13:29:42.380Z,97316.51
2018-12-09T13:31:53.251Z,97316.70
2018-12-09T13:34:04.160Z,97314.11
2018-12-09T13:36:15.190Z,97319.38
2018-12-09T13:38:26.350Z,97310.87
2018-12-09T13:40:37.320Z,97301.55
2018-12-09T13:42:48.335Z,97314.01
2018-12-09T13:44:59.340Z,97307.27
2018-12-09T13:47:10.245Z,97308.67
2018-12-09T13:49:21.193Z,97314.56
2018-12-09T13:51:32.141Z,97321.30
2018-12-09T13:53:43.036Z,97307.27
2018-12-09T13:55:53.868Z,97308.56
2018-12-09T13:58:04.769Z,97299.16
2018-12-09T14:00:17.695Z,97306.55
2018-12-09T14:02:28.572Z,97315.63
2018-12-09T14:04:39.425Z,97330.23
2018-12-09T14:06:50.322Z,97329.67
2018-12-09T14:09:01.240Z,97334.33
2018-12-09T14:11:12.159Z,97343.73
2018-12-09T14:13:23.042Z,97344.09
2018-12-09T14:15:33.914Z,97352.97
2018-12-09T14:17:44.892Z,97357.31
2018-12-09T14:19:55.943Z,97359.26
2018-12-09T14:22:06.855Z,97361.95
2018-12-09T14:24:17.847Z,97358.27
2018-12-09T14:26:28.765Z,97366.67
2018-12-09T14:28:39.803Z,97377.29
2018-12-09T14:30:50.693Z,97382.89
2018-12-09T14:33:01.550Z,97382.70
2018-12-09T14:35:12.450Z,97372.20
2018-12-09T14:37:23.329Z,97383.36
2018-12-09T14:39:34.401Z,97380.88
2018-12-09T14:41:45.423Z,97375.14
2018-12-09T14:43:56.309Z,97371.66
2018-12-09T14:46:07.186Z,97381.88
2018-12-09T14:48:18.144Z,97375.36
2018-12-09T14:50:29.040Z,97375.89
2018-12-09T14:52:40.064Z,97387.63
2018-12-09T14:54:50.975Z,97387.34
2018-12-09T14:57:02.009Z,97378.66
2018-12-09T14:59:13.010Z,97378.77
2018-12-09T15:01:23.989Z,97383.53
2018-12-09T15:03:34.940Z,97384.29
2018-12-09T15:05:45.826Z,97382.89
2018-12-09T15:07:56.731Z,97395.80
2018-12-09T15:10:08.977Z,97389.81
2018-12-09T15:12:20.427Z,97392.50
2018-12-09T15:14:31.321Z,97385.58
2018-12-09T15:16:42.260Z,97391.39
2018-12-09T15:18:53.158Z,97388.27
2018-12-09T15:21:04.192Z,97401.36
2018-12-09T15:23:15.043Z,97398.67
2018-12-09T15:25:26.028Z,97395.80
2018-12-09T15:27:36.960Z,97398.84
2018-12-09T15:29:47.865Z,97391.48
2018-12-09T15:31:58.743Z,97399.31
2018-12-09T15:34:09.614Z,97401.72
2018-12-09T15:36:20.505Z,97405.05
2018-12-09T15:38:31.369Z,97405.23
2018-12-09T15:40:42.252Z,97420.55
2018-12-09T15:42:53.177Z,97423.32
2018-12-09T15:45:05.729Z,97429.31
2018-12-09T15:47:16.630Z,97430.89
2018-12-09T15:49:28.392Z,97434.02
2018-12-09T15:51:39.386Z,97448.34
2018-12-09T15:53:50.303Z,97440.30
2018-12-09T15:56:01.272Z,97445.93
2018-12-09T15:58:12.136Z,97438.07
2018-12-09T16:00:25.082Z,97449.63
2018-12-09T16:02:36.231Z,97456.34
2018-12-09T16:04:47.104Z,97468.36
2018-12-09T16:06:57.943Z,97469.08
2018-12-09T16:09:08.812Z,97475.72
2018-12-09T16:11:19.699Z,97472.78
2018-12-09T16:13:30.562Z,97487.28
2018-12-09T16:15:41.477Z,97495.75
2018-12-09T16:17:52.426Z,97501.39
2018-12-09T16:20:05.256Z,97509.42
2018-12-09T16:22:16.169Z,97502.78
2018-12-09T16:24:27.071Z,97507.55
2018-12-09T16:26:38.061Z,97518.11
2018-12-09T16:28:48.974Z,97511.36
2018-12-09T16:30:59.843Z,97524.63
2018-12-09T16:33:10.725Z,97527.41
2018-12-09T16:35:21.647Z,97533.69
2018-12-09T16:37:32.642Z,97530.55
2018-12-09T16:39:43.512Z,97537.91
2018-12-09T16:41:54.415Z,97541.61
2018-12-09T16:44:05.414Z,97538.20
2018-12-09T16:46:16.306Z,97547.54
2018-12-09T16:48:27.151Z,97550.02
2018-12-09T16:50:38.051Z,97553.00
2018-12-09T16:52:48.983Z,97559.64
2018-12-09T16:54:59.861Z,97554.94
2018-12-09T16:57:10.721Z,97555.84
2018-12-09T16:59:21.572Z,97552.79
2018-12-09T17:01:32.461Z,97560.47
2018-12-09T17:03:43.334Z,97569.34
2018-12-09T17:05:54.220Z,97569.34
2018-12-09T17:08:05.074Z,97569.70
2018-12-09T17:10:15.926Z,97576.16
2018-12-09T17:12:26.861Z,97585.75
2018-12-09T17:14:37.845Z,97582.52
2018-12-09T17:16:48.773Z,97599.08
2018-12-09T17:18:59.667Z,97614.48
2018-12-09T17:21:10.567Z,97619.95
2018-12-09T17:23:21.435Z,97621.96
2018-12-09T17:25:32.317Z,97626.12
2018-12-09T17:27:43.209Z,97626.70
2018-12-09T17:29:54.097Z,97631.59
2018-12-09T17:32:04.977Z,97628.18
2018-12-09T17:34:15.885Z,97646.73
2018-12-09T17:36:26.767Z,97652.81
2018-12-09T17:38:37.663Z,97661.32
2018-12-09T17:40:48.586Z,97659.67
2018-12-09T17:42:59.510Z,97661.32
2018-12-09T17:45:10.422Z,97660.96
2018-12-09T17:47:21.318Z,97665.50
2018-12-09T17:49:32.168Z,97678.86
2018-12-09T17:51:43.060Z,97681.08
2018-12-09T17:53:54.021Z,97678.59
2018-12-09T17:56:04.893Z,97681.25
2018-12-09T17:58:15.784Z,97685.87
2018-12-09T18:00:26.682Z,97687.60
2018-12-09T18:02:37.551Z,97691.65
2018-12-09T18:04:48.400Z,97693.88
2018-12-09T18:06:59.277Z,97705.86
2018-12-09T18:09:10.212Z,97706.59
2018-12-09T18:11:21.074Z,97711.77
2018-12-09T18:13:31.970Z,97721.67
2018-12-09T18:15:42.983Z,97725.61
2018-12-09T18:17:53.860Z,97729.33
2018-12-09T18:20:04.867Z,97741.72
2018-12-09T18:22:15.767Z,97742.61
2018-12-09T18:24:26.613Z,97751.13
2018-12-09T18:26:37.509Z,97749.91
2018-12-09T18:28:48.391Z,97754.38
2018-12-09T18:30:59.293Z,97757.23
2018-12-09T18:33:10.256Z,97760.64
2018-12-09T18:35:21.137Z,97763.59
2018-12-09T18:37:32.147Z,97781.32
2018-12-09T18:39:43.164Z,97785.77
2018-12-09T18:41:54.056Z,97780.59
2018-12-09T18:44:04.920Z,97787.62
2018-12-09T18:46:15.812Z,97788.34
2018-12-09T18:48:26.795Z,97798.22
2018-12-09T18:50:38.981Z,97808.10
2018-12-09T18:52:50.097Z,97819.20
2018-12-09T18:55:00.966Z,97818.02
2018-12-09T18:57:11.861Z,97825.20
2018-12-09T18:59:22.777Z,97836.02
2018-12-09T19:01:33.681Z,97841.84
2018-12-09T19:03:44.553Z,97852.55
2018-12-09T19:05:55.472Z,97855.08
2018-12-09T19:08:06.356Z,97862.62
2018-12-09T19:10:17.475Z,97870.91
2018-12-09T19:12:28.377Z,97875.78
2018-12-09T19:14:39.255Z,97877.38
2018-12-09T19:16:50.145Z,97880.38
2018-12-09T19:19:01.049Z,97888.14
2018-12-09T19:21:12.025Z,97896.36
2018-12-09T19:23:23.061Z,97906.54
2018-12-09T19:25:33.918Z,97904.02
2018-12-09T19:27:44.833Z,97910.18
2018-12-09T19:29:55.710Z,97907.53
2018-12-09T19:32:06.608Z,97908.61
2018-12-09T19:34:17.460Z,97915.14
2018-12-09T19:36:28.336Z,97919.06
2018-12-09T19:38:40.348Z,97923.66
2018-12-09T19:40:51.680Z,97929.75
2018-12-09T19:43:02.577Z,97942.91
2018-12-09T19:45:13.411Z,97935.14
2018-12-09T19:47:24.304Z,97935.70
2018-12-09T19:49:35.223Z,97947.55
2018-12-09T19:51:46.092Z,97949.25
2018-12-09T19:53:57.141Z,97951.00
2018-12-09T19:56:08.059Z,97952.35
2018-12-09T19:58:18.936Z,97962.94
2018-12-09T20:00:29.834Z,97962.17
2018-12-09T20:02:40.818Z,97968.78
2018-12-09T20:04:51.681Z,97975.13
2018-12-09T20:07:02.591Z,97984.69
2018-12-09T20:09:13.485Z,97992.44
2018-12-09T20:11:24.349Z,98003.79
2018-12-09T20:13:35.221Z,98005.08
2018-12-09T20:15:46.139Z,98016.98
2018-12-09T20:17:57.011Z,98015.70
2018-12-09T20:20:07.928Z,98015.78
2018-12-09T20:22:18.845Z,98021.85
2018-12-09T20:24:29.725Z,98027.94
2018-12-09T20:26:40.641Z,98029.30
2018-12-09T20:28:51.510Z,98039.63
2018-12-09T20:31:02.385Z,98038.89
2018-12-09T20:33:13.301Z,98047.24
2018-12-09T20:35:24.233Z,98045.75
2018-12-09T20:37:35.090Z,98051.45
2018-12-09T20:39:45.965Z,98064.20
2018-12-09T20:41:57.013Z,98065.05
2018-12-09T20:44:09.076Z,98061.00
2018-12-09T20:46:20.276Z,98062.61
2018-12-09T20:48:31.269Z,98065.29
2018-12-09T20:50:42.133Z,98060.52
2018-12-09T20:52:53.045Z,98070.80
2018-12-09T20:55:05.642Z,98071.87
2018-12-09T20:57:16.504Z,98075.43
2018-12-09T20:59:27.516Z,98078.16
2018-12-09T21:01:38.437Z,98082.80
2018-12-09T21:03:49.319Z,98084.80
2018-12-09T21:06:00.214Z,98087.44
2018-12-09T21:08:11.121Z,98099.30
2018-12-09T21:10:21.961Z,98105.84
2018-12-09T21:12:32.837Z,98109.77
2018-12-09T21:14:43.735Z,98108.48
2018-12-09T21:16:54.619Z,98127.17
2018-12-09T21:19:05.489Z,98124.27
2018-12-09T21:21:16.463Z,98124.22
2018-12-09T21:23:27.368Z,98127.55
2018-12-09T21:25:38.220Z,98128.01
2018-12-09T21:27:49.089Z,98132.40
2018-12-09T21:29:59.976Z,98140.92
2018-12-09T21:32:10.836Z,98139.17
2018-12-09T21:34:21.688Z,98147.06
2018-12-09T21:36:32.569Z,98152.31
2018-12-09T21:38:43.465Z,98155.79
2018-12-09T21:40:54.375Z,98156.11
2018-12-09T21:43:05.280Z,98164.23
2018-12-09T21:45:16.139Z,98172.30
2018-12-09T21:47:26.988Z,98175.34
2018-12-09T21:49:37.832Z,98170.77
2018-12-09T21:51:48.813Z,98181.33
2018-12-09T21:53:59.683Z,98196.19
2018-12-09T21:56:10.551Z,98192.99
2018-12-09T21:58:21.420Z,98204.30
2018-12-09T22:00:32.296Z,98203.45
2018-12-09T22:02:43.171Z,98212.36
2018-12-09T22:04:54.054Z,98213.79
2018-12-09T22:07:04.954Z,98210.42
2018-12-09T22:09:15.791Z,98213.17
2018-12-09T22:11:26.643Z,98213.77
2018-12-09T22:13:37.487Z,98219.31
2018-12-09T22:15:48.380Z,98225.68
2018-12-09T22:17:59.214Z,98235.26
2018-12-09T22:20:10.144Z,98235.63
2018-12-09T22:22:21.054Z,98239.05
2018-12-09T22:24:31.900Z,98244.34
2018-12-09T22:26:42.781Z,98239.13
2018-12-09T22:28:53.627Z,98250.21
2018-12-09T22:31:04.472Z,98246.42
2018-12-09T22:33:15.433Z,98252.28
2018-12-09T22:35:26.413Z,98258.20
2018-12-09T22:37:37.433Z,98266.03
2018-12-09T22:39:48.324Z,98260.63
2018-12-09T22:41:59.193Z,98267.08
2018-12-09T22:44:10.043Z,98275.20
2018-12-09T22:46:20.884Z,98272.81
2018-12-09T22:48:31.744Z,98276.44
2018-12-09T22:50:42.610Z,98281.98
2018-12-09T22:52:53.508Z,98283.19
2018-12-09T22:55:04.500Z,98282.57
2018-12-09T22:57:15.393Z,98276.81
2018-12-09T22:59:26.349Z,98284.02
2018-12-09T23:01:39.360Z,98280.23
2018-12-09T23:03:50.298Z,98291.77
2018-12-09T23:06:01.225Z,98297.09
2018-12-09T23:08:12.060Z,98292.44
2018-12-09T23:10:22.948Z,98299.68
2018-12-09T23:12:33.770Z,98302.27
2018-12-09T23:14:44.646Z,98310.44
2018-12-09T23:16:55.488Z,98312.05
2018-12-09T23:19:06.379Z,98318.51
2018-12-09T23:21:17.232Z,98318.88
2018-12-09T23:23:28.085Z,98311.67
2018-12-09T23:25:38.916Z,98328.46
2018-12-09T23:27:49.765Z,98328.97
2018-12-09T23:30:00.614Z,98333.63
2018-12-09T23:32:11.458Z,98338.00
2018-12-09T23:34:22.329Z,98342.41
2018-12-09T23:36:33.181Z,98346.34
2018-12-09T23:38:44.044Z,98347.45
2018-12-09T23:40:54.864Z,98348.33
2018-12-09T23:43:05.699Z,98356.62
2018-12-09T23:45:16.676Z,98352.20
2018-12-09T23:47:27.541Z,98360.36
2018-12-09T23:49:38.392Z,98364.74
2018-12-09T23:51:49.242Z,98367.91
2018-12-09T23:54:00.213Z,98360.21
2018-12-09T23:56:11.090Z,98354.67
2018-12-09T23:58:21.912Z,98361.25
